Time;durP1;ratioP1;P1;durP2;ratioP2;P2;SDS_P1;SDS_P2;PMS_P1;PMS_P2;Temp;Humidity;BMP_temperature;BMP_pressure;BME280_temperature;BME280_humidity;BME280_pressure;Samples;Min_cycle;Max_cycle;Signal;HPM_P1;HPM_P2
2023/12/12 05:01:45;;;;;;;21.42;7.72;;;6.70;99.90;;;;;;5295774;23;20336;-76
2023/12/12 05:04:12;;;;;;;17.70;6.03;;;6.70;99.90;;;;;;4926979;29;20233;-76
2023/12/12 05:06:38;;;;;;;23.20;8.00;;;6.70;99.90;;;;;;4932762;29;20210;-73
2023/12/12 05:09:05;;;;;;;22.50;7.65;;;6.70;99.90;;;;;;4932967;29;20209;-76
2023/12/12 05:11:32;;;;;;;18.98;8.52;;;6.70;99.90;;;;;;4932641;29;20252;-76
2023/12/12 05:13:58;;;;;;;20.85;8.13;;;6.70;99.90;;;;;;4934837;29;20208;-76
2023/12/12 05:16:25;;;;;;;19.17;8.68;;;6.70;99.90;;;;;;4933070;29;20221;-76
2023/12/12 05:18:54;;;;;;;17.00;6.40;;;6.70;99.90;;;;;;4933619;29;20204;-74
2023/12/12 05:21:21;;;;;;;18.58;6.68;;;6.70;99.90;;;;;;4932781;29;20292;-74
2023/12/12 05:23:48;;;;;;;15.57;7.90;;;6.70;99.90;;;;;;4932531;29;20606;-74
2023/12/12 05:26:15;;;;;;;20.88;8.77;;;6.60;99.90;;;;;;4929874;29;20711;-74
2023/12/12 05:28:42;;;;;;;16.38;7.07;;;6.60;99.90;;;;;;4934433;29;20288;-75
2023/12/12 05:31:09;;;;;;;19.42;7.05;;;6.70;99.90;;;;;;4931965;29;20231;-74
2023/12/12 05:33:35;;;;;;;17.23;7.05;;;6.70;99.90;;;;;;4930536;29;20227;-74
2023/12/12 05:36:04;;;;;;;21.27;8.05;;;6.70;99.90;;;;;;4930843;29;20210;-74
2023/12/12 05:38:31;;;;;;;23.67;9.05;;;6.70;99.90;;;;;;4932638;29;20224;-74
2023/12/12 05:40:57;;;;;;;14.68;6.07;;;6.70;99.90;;;;;;4931124;29;20241;-74
2023/12/12 05:43:24;;;;;;;29.38;9.20;;;6.70;99.90;;;;;;4932356;29;20280;-74
2023/12/12 05:45:51;;;;;;;18.50;8.00;;;6.70;99.90;;;;;;4932747;29;20855;-74
2023/12/12 05:48:18;;;;;;;23.75;7.18;;;6.70;99.90;;;;;;4931963;29;20297;-74
2023/12/12 05:50:45;;;;;;;22.45;8.00;;;6.60;99.90;;;;;;4933712;29;20240;-75
2023/12/12 05:53:13;;;;;;;22.10;7.80;;;6.70;99.90;;;;;;4931050;29;20210;-75
2023/12/12 05:55:39;;;;;;;21.52;7.28;;;6.60;99.90;;;;;;4932602;29;20301;-75
2023/12/12 05:58:06;;;;;;;18.33;8.30;;;6.60;99.90;;;;;;4930911;29;20213;-75
2023/12/12 06:00:33;;;;;;;21.15;7.47;;;6.60;99.90;;;;;;4931043;29;20249;-75
2023/12/12 06:02:59;;;;;;;13.27;6.78;;;6.70;99.90;;;;;;4932506;29;20205;-74
2023/12/12 06:05:26;;;;;;;19.60;7.57;;;6.70;99.90;;;;;;4932861;29;20236;-75
2023/12/12 06:07:53;;;;;;;21.35;8.00;;;6.70;99.90;;;;;;4932066;29;20215;-75
2023/12/12 06:10:21;;;;;;;25.48;7.95;;;6.70;99.90;;;;;;4930796;29;20221;-75
2023/12/12 06:12:48;;;;;;;25.40;9.60;;;6.60;99.90;;;;;;4936428;29;20220;-75
2023/12/12 06:15:14;;;;;;;24.95;7.82;;;6.60;99.90;;;;;;4935476;29;20217;-75
2023/12/12 06:17:41;;;;;;;24.95;6.88;;;6.60;99.90;;;;;;4936306;29;20236;-75
2023/12/12 06:20:09;;;;;;;15.63;8.25;;;6.60;99.90;;;;;;4936095;29;20756;-74
2023/12/12 06:22:36;;;;;;;20.52;6.25;;;6.70;99.90;;;;;;4936066;29;20244;-75
2023/12/12 06:25:03;;;;;;;13.77;7.88;;;6.70;99.90;;;;;;4935667;29;20222;-75
2023/12/12 06:27:31;;;;;;;18.60;6.60;;;6.70;99.90;;;;;;4936108;29;20210;-75
2023/12/12 06:29:57;;;;;;;15.13;6.43;;;6.70;99.90;;;;;;4935575;29;20213;-75
2023/12/12 06:32:24;;;;;;;20.42;6.25;;;6.60;99.90;;;;;;4941109;29;20255;-75
2023/12/12 06:34:51;;;;;;;20.23;7.78;;;6.60;99.90;;;;;;4936419;29;20210;-75
2023/12/12 06:37:17;;;;;;;16.88;7.15;;;6.60;99.90;;;;;;4937149;29;20584;-75
2023/12/12 06:39:44;;;;;;;17.27;7.10;;;6.60;99.90;;;;;;4935358;29;20210;-75
2023/12/12 06:42:11;;;;;;;14.45;5.40;;;6.60;99.90;;;;;;4938598;29;20234;-75
2023/12/12 06:44:39;;;;;;;16.25;6.55;;;6.60;99.90;;;;;;4937979;29;20238;-75
2023/12/12 06:47:06;;;;;;;26.92;7.20;;;6.60;99.90;;;;;;4937815;29;20224;-75
2023/12/12 06:49:33;;;;;;;16.52;5.50;;;6.60;99.90;;;;;;4937582;29;20206;-74
2023/12/12 06:52:01;;;;;;;13.15;6.15;;;6.60;99.90;;;;;;4934488;29;20232;-75
2023/12/12 06:54:28;;;;;;;12.27;6.47;;;6.60;99.90;;;;;;4935982;29;20643;-75
2023/12/12 06:56:55;;;;;;;15.93;7.78;;;6.60;99.90;;;;;;4935024;29;20609;-75
2023/12/12 06:59:22;;;;;;;18.98;6.78;;;6.60;99.90;;;;;;4937520;29;20206;-75
2023/12/12 07:01:51;;;;;;;17.17;5.72;;;6.60;99.90;;;;;;4933621;29;20240;-75
2023/12/12 07:04:18;;;;;;;78.80;35.75;;;6.60;99.90;;;;;;4963274;23;20237;-72
2023/12/12 07:06:45;;;;;;;38.70;18.30;;;6.60;99.90;;;;;;4961353;28;20667;-73
2023/12/12 07:09:12;;;;;;;58.67;25.33;;;6.60;99.90;;;;;;4950669;28;20699;-71
2023/12/12 07:11:39;;;;;;;35.22;19.92;;;6.60;99.90;;;;;;4945255;29;20337;-72
2023/12/12 07:14:06;;;;;;;23.77;11.15;;;6.60;99.90;;;;;;4943190;29;20249;-71
2023/12/12 07:16:33;;;;;;;23.45;11.15;;;6.60;99.90;;;;;;4933976;29;20249;-71
2023/12/12 07:19:02;;;;;;;18.85;7.07;;;6.60;99.90;;;;;;4933134;29;20638;-72
2023/12/12 07:21:30;;;;;;;10.45;4.63;;;6.60;99.90;;;;;;4946632;28;20243;-72
2023/12/12 07:23:57;;;;;;;14.20;6.15;;;6.60;99.90;;;;;;4933279;29;20300;-73
2023/12/12 07:26:24;;;;;;;10.00;5.20;;;6.50;99.90;;;;;;4931597;29;20777;-72
2023/12/12 07:28:51;;;;;;;16.77;5.40;;;6.60;99.90;;;;;;4937898;29;20971;-73
2023/12/12 07:31:19;;;;;;;13.02;6.60;;;6.60;99.90;;;;;;4943023;29;20230;-73
2023/12/12 07:33:46;;;;;;;20.42;5.72;;;6.60;99.90;;;;;;4939730;29;20214;-73
2023/12/12 07:36:14;;;;;;;16.15;6.63;;;6.60;99.90;;;;;;4930172;29;20642;-72
2023/12/12 07:38:41;;;;;;;17.00;6.65;;;6.60;99.90;;;;;;4940400;29;20212;-73
2023/12/12 07:41:09;;;;;;;18.40;7.28;;;6.60;99.90;;;;;;4937452;29;20264;-73
2023/12/12 07:43:36;;;;;;;17.45;7.60;;;6.70;99.90;;;;;;4945198;29;20291;-74
2023/12/12 07:46:02;;;;;;;18.92;6.40;;;6.70;99.90;;;;;;4935244;29;20357;-72
2023/12/12 07:48:30;;;;;;;23.70;6.15;;;6.70;99.90;;;;;;4937146;29;20304;-72
2023/12/12 07:50:56;;;;;;;18.50;7.85;;;6.70;99.90;;;;;;4939402;29;20221;-72
2023/12/12 07:53:25;;;;;;;14.10;5.70;;;6.70;99.90;;;;;;4937468;29;20670;-72
2023/12/12 07:55:51;;;;;;;18.48;6.20;;;6.70;99.90;;;;;;4941961;29;20267;-72
2023/12/12 07:58:18;;;;;;;16.40;6.28;;;6.70;99.90;;;;;;4940190;29;20677;-72
2023/12/12 08:00:45;;;;;;;20.83;8.38;;;6.70;99.90;;;;;;4937151;29;20237;-72
2023/12/12 08:03:13;;;;;;;16.85;9.63;;;6.80;99.90;;;;;;4934877;29;20575;-73
2023/12/12 08:05:39;;;;;;;16.98;6.88;;;6.80;99.90;;;;;;4940111;29;20243;-72
2023/12/12 08:08:07;;;;;;;20.08;7.60;;;6.80;99.90;;;;;;4930935;29;20312;-73
2023/12/12 08:10:36;;;;;;;18.15;6.15;;;6.70;99.90;;;;;;4935715;29;20646;-73
2023/12/12 08:13:03;;;;;;;15.13;6.22;;;6.70;99.90;;;;;;4939182;29;20214;-73
2023/12/12 08:15:30;;;;;;;15.15;6.68;;;6.70;99.90;;;;;;4932303;29;20234;-72
2023/12/12 08:17:57;;;;;;;11.88;5.25;;;6.70;99.90;;;;;;4940015;29;20657;-72
2023/12/12 08:20:24;;;;;;;13.90;6.75;;;6.70;99.90;;;;;;4937770;29;20237;-73
2023/12/12 08:22:50;;;;;;;12.73;5.82;;;6.70;99.90;;;;;;4940900;29;20292;-73
2023/12/12 08:25:19;;;;;;;10.40;4.82;;;6.70;99.90;;;;;;4933515;29;20602;-72
2023/12/12 08:27:47;;;;;;;13.82;5.63;;;6.70;99.90;;;;;;4930149;29;20587;-73
2023/12/12 08:30:14;;;;;;;11.30;4.93;;;6.80;99.90;;;;;;4928022;29;20242;-72
2023/12/12 08:32:41;;;;;;;17.50;7.00;;;6.80;99.90;;;;;;4931052;28;20308;-72
2023/12/12 08:35:09;;;;;;;26.83;14.48;;;6.80;99.90;;;;;;4931604;29;20246;-72
2023/12/12 08:37:35;;;;;;;33.97;10.52;;;6.90;99.90;;;;;;4933097;29;20206;-72
2023/12/12 08:40:02;;;;;;;14.38;6.90;;;6.90;99.90;;;;;;4933762;29;20221;-73
2023/12/12 08:42:29;;;;;;;11.93;5.32;;;6.90;99.90;;;;;;4932465;29;20264;-73
2023/12/12 08:44:57;;;;;;;23.27;7.47;;;6.90;99.90;;;;;;4940859;29;20393;-73
2023/12/12 08:47:24;;;;;;;13.80;6.25;;;6.80;99.90;;;;;;4938759;29;20249;-74
2023/12/12 08:49:51;;;;;;;21.08;5.72;;;6.80;99.90;;;;;;4936587;29;20290;-73
2023/12/12 08:52:18;;;;;;;13.25;5.40;;;6.90;99.90;;;;;;4933045;29;20301;-72
2023/12/12 08:54:45;;;;;;;14.38;6.40;;;6.90;99.90;;;;;;4931096;29;20320;-73
2023/12/12 08:57:13;;;;;;;19.77;6.50;;;6.90;99.90;;;;;;4939817;29;20210;-72
2023/12/12 08:59:41;;;;;;;17.30;7.13;;;6.90;99.90;;;;;;4934294;29;20225;-73
2023/12/12 09:02:09;;;;;;;15.65;7.13;;;6.90;99.90;;;;;;4928557;29;20230;-75
2023/12/12 09:04:37;;;;;;;15.52;5.18;;;6.90;99.90;;;;;;4939931;29;20619;-73
2023/12/12 09:07:04;;;;;;;13.32;6.80;;;7.00;99.90;;;;;;4931509;29;20276;-75
2023/12/12 09:09:31;;;;;;;20.10;9.35;;;7.00;99.90;;;;;;4929143;29;20301;-75
2023/12/12 09:11:57;;;;;;;19.25;9.85;;;7.10;99.90;;;;;;4930182;29;20240;-75
2023/12/12 09:14:24;;;;;;;15.68;6.72;;;7.10;99.90;;;;;;4929698;29;20233;-75
2023/12/12 09:16:52;;;;;;;23.63;7.05;;;7.10;99.90;;;;;;4938632;29;20249;-74
2023/12/12 09:19:20;;;;;;;14.45;5.47;;;7.10;99.90;;;;;;4931899;29;20210;-74
2023/12/12 09:21:48;;;;;;;9.20;5.03;;;7.10;99.90;;;;;;4930697;29;20234;-73
2023/12/12 09:24:15;;;;;;;10.13;6.78;;;7.10;99.90;;;;;;4928221;29;20210;-74
2023/12/12 09:26:42;;;;;;;31.20;14.48;;;7.20;99.90;;;;;;4934359;29;20414;-76
2023/12/12 09:29:09;;;;;;;47.55;26.73;;;7.20;99.90;;;;;;4934659;29;20237;-75
2023/12/12 09:31:36;;;;;;;24.05;12.32;;;7.20;99.90;;;;;;4932826;29;20265;-75
2023/12/12 09:34:03;;;;;;;45.67;25.05;;;7.20;99.90;;;;;;4933694;29;20221;-74
2023/12/12 09:36:31;;;;;;;27.52;14.43;;;7.20;99.90;;;;;;4933394;29;20245;-75
2023/12/12 09:38:58;;;;;;;13.25;9.35;;;7.20;99.90;;;;;;4932679;29;20303;-75
2023/12/12 09:41:25;;;;;;;9.50;6.55;;;7.20;99.90;;;;;;4931351;29;20233;-75
2023/12/12 09:43:52;;;;;;;13.85;9.02;;;7.20;99.90;;;;;;4939324;28;20304;-75
2023/12/12 09:46:20;;;;;;;13.80;6.70;;;7.20;99.90;;;;;;4931399;29;20238;-74
2023/12/12 09:48:49;;;;;;;7.43;4.28;;;7.20;99.90;;;;;;4948543;29;20280;-75
2023/12/12 09:51:16;;;;;;;10.85;5.65;;;7.20;99.90;;;;;;4930063;29;20666;-75
2023/12/12 09:53:46;;;;;;;13.00;6.75;;;7.20;99.90;;;;;;4932709;29;20282;-75
2023/12/12 09:56:16;;;;;;;11.98;5.68;;;7.20;99.90;;;;;;4931468;29;20249;-75
2023/12/12 09:58:46;;;;;;;26.40;16.10;;;7.20;99.90;;;;;;4932024;29;20250;-75
2023/12/12 10:01:14;;;;;;;12.20;6.82;;;7.20;99.90;;;;;;4931065;29;20240;-71
2023/12/12 10:03:41;;;;;;;39.72;22.85;;;7.20;99.90;;;;;;4929757;29;20224;-71
2023/12/12 10:06:10;;;;;;;15.77;10.63;;;7.20;99.90;;;;;;4933936;29;20348;-71
2023/12/12 10:08:38;;;;;;;11.65;6.97;;;7.20;99.90;;;;;;4929601;29;20221;-72
2023/12/12 10:11:09;;;;;;;17.95;12.50;;;7.20;99.90;;;;;;4929923;29;20349;-72
2023/12/12 10:13:48;;;;;;;30.00;16.50;;;7.30;99.90;;;;;;4933652;29;20201;-71
2023/12/12 10:16:15;;;;;;;21.30;11.75;;;7.20;99.90;;;;;;4927843;29;20342;-71
2023/12/12 10:18:42;;;;;;;14.90;9.15;;;7.30;99.90;;;;;;4927850;29;20300;-72
2023/12/12 10:21:15;;;;;;;34.00;19.45;;;7.20;99.90;;;;;;4927839;29;20320;-72
2023/12/12 10:23:44;;;;;;;35.63;19.85;;;7.30;99.90;;;;;;4938070;29;20221;-72
2023/12/12 10:26:13;;;;;;;12.60;7.60;;;7.30;99.90;;;;;;4946535;29;20297;-72
2023/12/12 10:28:41;;;;;;;8.90;5.93;;;7.30;99.90;;;;;;4932447;29;20313;-71
2023/12/12 10:31:09;;;;;;;21.88;15.13;;;7.30;99.90;;;;;;4933390;29;20293;-70
2023/12/12 10:33:38;;;;;;;16.48;9.93;;;7.30;99.90;;;;;;4924065;29;20272;-71
2023/12/12 10:36:09;;;;;;;5.57;4.90;;;7.30;99.90;;;;;;4933049;29;20269;-71
2023/12/12 10:38:37;;;;;;;21.20;12.77;;;7.40;99.90;;;;;;4931258;29;20659;-71
2023/12/12 10:41:14;;;;;;;9.25;6.30;;;7.40;99.90;;;;;;4931039;29;20226;-71
2023/12/12 10:43:41;;;;;;;7.18;5.43;;;7.40;99.90;;;;;;4931445;29;20388;-71
2023/12/12 10:46:12;;;;;;;10.13;6.72;;;7.40;99.90;;;;;;4941373;29;20234;-71
2023/12/12 10:48:43;;;;;;;15.70;9.90;;;7.40;99.90;;;;;;4937258;29;20301;-70
2023/12/12 10:51:11;;;;;;;10.93;5.72;;;7.40;99.90;;;;;;4930778;29;20697;-71
2023/12/12 10:53:39;;;;;;;9.68;5.78;;;7.40;99.90;;;;;;4933089;29;20672;-72
2023/12/12 10:56:07;;;;;;;7.68;5.53;;;7.50;99.90;;;;;;4934530;28;20673;-71
2023/12/12 10:58:37;;;;;;;7.25;5.78;;;7.40;99.90;;;;;;4936245;29;20666;-73
2023/12/12 11:01:05;;;;;;;10.07;7.45;;;7.40;99.90;;;;;;4936646;29;20229;-78
2023/12/12 11:03:32;;;;;;;12.57;7.85;;;7.40;99.90;;;;;;4935320;29;20214;-75
2023/12/12 11:06:00;;;;;;;12.23;6.20;;;7.50;99.90;;;;;;4935162;29;20225;-73
2023/12/12 11:08:28;;;;;;;12.07;5.88;;;7.50;99.90;;;;;;4937879;29;20974;-73
2023/12/12 11:10:55;;;;;;;11.93;5.47;;;7.50;99.90;;;;;;4935015;29;20269;-72
2023/12/12 11:13:25;;;;;;;12.90;7.07;;;7.50;99.90;;;;;;4933660;29;20333;-72
2023/12/12 11:15:56;;;;;;;11.43;7.20;;;7.50;99.90;;;;;;4934625;29;20609;-72
2023/12/12 11:18:23;;;;;;;11.40;7.30;;;7.60;99.90;;;;;;4935861;29;20210;-72
2023/12/12 11:20:50;;;;;;;10.32;6.80;;;7.60;99.90;;;;;;4934203;29;20312;-72
2023/12/12 11:23:54;;;;;;;10.45;6.72;;;7.60;99.90;;;;;;4932194;29;20297;-72
2023/12/12 11:26:22;;;;;;;10.05;6.82;;;7.60;99.90;;;;;;4928276;29;20229;-73
2023/12/12 11:28:49;;;;;;;9.77;6.53;;;7.60;99.90;;;;;;4934781;29;20216;-72
2023/12/12 11:31:26;;;;;;;22.30;12.00;;;7.70;99.90;;;;;;4935208;29;20317;-72
2023/12/12 11:34:04;;;;;;;10.13;7.15;;;7.60;99.90;;;;;;4933286;29;20554;-72
2023/12/12 11:36:50;;;;;;;23.27;13.45;;;7.60;99.90;;;;;;4934673;29;20224;-72
2023/12/12 11:39:25;;;;;;;22.35;12.98;;;7.50;99.90;;;;;;4933991;29;20205;-73
2023/12/12 11:41:52;;;;;;;15.70;10.48;;;7.50;99.90;;;;;;4926046;29;20321;-72
2023/12/12 11:44:20;;;;;;;12.63;8.10;;;7.50;99.90;;;;;;4927145;29;20598;-72
2023/12/12 11:46:48;;;;;;;11.70;8.43;;;7.50;99.90;;;;;;4923455;29;20324;-73
2023/12/12 11:49:20;;;;;;;9.40;7.38;;;7.50;99.90;;;;;;4933514;29;20229;-72
2023/12/12 11:51:49;;;;;;;9.82;5.68;;;7.50;99.90;;;;;;4933656;29;20700;-72
2023/12/12 11:54:22;;;;;;;12.18;7.07;;;7.50;99.90;;;;;;4934448;29;20245;-72
2023/12/12 11:56:54;;;;;;;19.83;10.88;;;7.50;99.90;;;;;;4932966;29;20649;-72
2023/12/12 11:59:22;;;;;;;13.25;7.30;;;7.50;99.90;;;;;;4930724;29;20682;-72
2023/12/12 12:01:51;;;;;;;11.93;7.90;;;7.50;99.90;;;;;;4934125;29;20233;-73
2023/12/12 12:04:18;;;;;;;12.20;7.57;;;7.50;99.90;;;;;;4934755;29;20305;-72
2023/12/12 12:06:46;;;;;;;10.40;7.85;;;7.50;99.90;;;;;;4933634;29;20699;-72
2023/12/12 12:09:15;;;;;;;14.30;7.78;;;7.60;99.90;;;;;;4935118;29;20289;-72
2023/12/12 12:11:47;;;;;;;11.07;6.15;;;7.60;99.90;;;;;;4933665;29;20320;-72
2023/12/12 12:14:15;;;;;;;11.70;7.43;;;7.60;99.90;;;;;;4934815;29;20304;-72
2023/12/12 12:16:43;;;;;;;27.08;15.25;;;7.60;99.90;;;;;;4933857;29;20579;-72
2023/12/12 12:19:33;;;;;;;16.88;9.00;;;7.60;99.90;;;;;;4932007;29;20296;-72
2023/12/12 12:22:04;;;;;;;19.80;11.80;;;7.60;99.90;;;;;;4930826;29;20285;-72
2023/12/12 12:24:32;;;;;;;14.25;6.90;;;7.60;99.90;;;;;;4934705;29;20210;-72
2023/12/12 12:26:59;;;;;;;6.80;5.50;;;7.50;99.90;;;;;;4933533;29;20789;-72
2023/12/12 12:29:26;;;;;;;9.30;5.65;;;7.50;99.90;;;;;;4931416;29;20297;-72
2023/12/12 12:31:53;;;;;;;7.03;5.18;;;7.40;99.90;;;;;;4932831;29;20269;-72
2023/12/12 12:34:21;;;;;;;6.00;4.88;;;7.40;99.90;;;;;;4933271;29;20293;-72
2023/12/12 12:36:51;;;;;;;29.38;13.15;;;7.40;99.90;;;;;;4929721;29;20384;-72
2023/12/12 12:39:19;;;;;;;20.48;10.45;;;7.40;99.90;;;;;;4936147;29;20233;-72
2023/12/12 12:41:54;;;;;;;10.38;8.15;;;7.40;99.90;;;;;;4938033;28;20661;-72
2023/12/12 12:44:21;;;;;;;6.93;5.03;;;7.50;99.90;;;;;;4935156;29;20209;-72
2023/12/12 12:46:51;;;;;;;8.90;6.00;;;7.50;99.90;;;;;;4933769;29;20230;-73
2023/12/12 12:49:18;;;;;;;7.25;4.97;;;7.50;99.90;;;;;;4930671;29;20228;-72
2023/12/12 12:51:47;;;;;;;5.38;4.85;;;7.40;99.90;;;;;;4932400;29;20265;-72
2023/12/12 12:54:16;;;;;;;7.57;4.90;;;7.40;99.90;;;;;;4930730;29;20236;-72
2023/12/12 12:56:44;;;;;;;8.95;5.35;;;7.40;99.90;;;;;;4933924;29;20725;-78
2023/12/12 12:59:13;;;;;;;6.63;4.35;;;7.40;99.90;;;;;;4937080;29;20539;-79
2023/12/12 13:01:41;;;;;;;7.70;5.47;;;7.50;99.90;;;;;;4932131;29;20306;-72
2023/12/12 13:04:09;;;;;;;5.78;4.63;;;7.50;99.90;;;;;;4932727;29;20769;-72
2023/12/12 13:06:36;;;;;;;7.78;5.78;;;7.50;99.90;;;;;;4929514;29;20226;-72
2023/12/12 13:09:04;;;;;;;9.38;5.30;;;7.50;99.90;;;;;;4929836;29;20944;-72
2023/12/12 13:11:32;;;;;;;6.15;4.60;;;7.50;99.90;;;;;;4927836;29;20245;-72
2023/12/12 13:13:59;;;;;;;7.70;5.45;;;7.50;99.90;;;;;;4931814;29;20306;-72
2023/12/12 13:16:27;;;;;;;9.07;5.15;;;7.50;99.90;;;;;;4931348;29;20260;-71
2023/12/12 13:18:54;;;;;;;12.85;5.38;;;7.50;99.90;;;;;;4931174;29;20296;-73
2023/12/12 13:21:21;;;;;;;10.88;4.85;;;7.50;99.90;;;;;;4931579;29;20253;-72
2023/12/12 13:23:48;;;;;;;6.38;4.03;;;7.50;99.90;;;;;;4930958;29;20230;-74
2023/12/12 13:26:15;;;;;;;7.20;4.50;;;7.40;99.90;;;;;;4926387;29;20301;-71
2023/12/12 13:28:44;;;;;;;8.57;4.30;;;7.40;99.90;;;;;;4927745;29;20214;-71
2023/12/12 13:31:11;;;;;;;11.65;5.32;;;7.40;99.90;;;;;;4930927;29;20639;-71
2023/12/12 13:33:38;;;;;;;5.32;4.20;;;7.40;99.90;;;;;;4935691;29;20740;-71
2023/12/12 13:36:06;;;;;;;7.50;4.82;;;7.40;99.90;;;;;;4929263;29;20669;-71
2023/12/12 13:38:33;;;;;;;9.20;5.40;;;7.40;99.90;;;;;;4932343;29;20560;-71
2023/12/12 13:41:00;;;;;;;6.80;4.68;;;7.40;99.90;;;;;;4932320;29;20584;-71
2023/12/12 13:43:27;;;;;;;12.65;6.20;;;7.40;99.90;;;;;;4931696;29;20237;-71
2023/12/12 13:45:55;;;;;;;12.43;5.80;;;7.40;99.90;;;;;;4931366;29;20703;-71
2023/12/12 13:48:22;;;;;;;7.68;4.93;;;7.40;99.90;;;;;;4931007;29;20237;-72
2023/12/12 13:50:49;;;;;;;7.40;5.22;;;7.40;99.90;;;;;;4930632;29;20316;-71
2023/12/12 13:53:16;;;;;;;5.05;4.38;;;7.40;99.90;;;;;;4931243;29;20293;-71
2023/12/12 13:55:42;;;;;;;7.82;5.78;;;7.40;99.90;;;;;;4930393;29;20338;-71
2023/12/12 13:58:09;;;;;;;4.60;4.25;;;7.40;99.90;;;;;;4929925;29;20307;-71
2023/12/12 14:00:36;;;;;;;11.10;5.47;;;7.40;99.90;;;;;;4931755;29;20277;-72
2023/12/12 14:03:05;;;;;;;10.65;5.53;;;7.40;99.90;;;;;;4931446;29;20225;-72
2023/12/12 14:05:38;;;;;;;7.82;6.05;;;7.40;99.90;;;;;;4935544;29;20237;-70
2023/12/12 14:08:05;;;;;;;12.15;5.85;;;7.40;99.90;;;;;;4934364;29;20336;-69
2023/12/12 14:10:35;;;;;;;9.00;5.65;;;7.40;99.90;;;;;;4942419;23;20249;-70
2023/12/12 14:13:02;;;;;;;10.60;6.10;;;7.40;99.90;;;;;;4926222;29;20242;-70
2023/12/12 14:15:29;;;;;;;6.47;4.93;;;7.40;99.90;;;;;;4914599;29;20506;-71
2023/12/12 14:17:56;;;;;;;11.02;5.13;;;7.30;99.90;;;;;;4914234;29;20249;-70
2023/12/12 14:20:24;;;;;;;6.90;6.00;;;7.30;99.90;;;;;;4914210;29;20321;-70
2023/12/12 14:22:51;;;;;;;11.05;5.13;;;7.30;99.90;;;;;;4914173;29;20207;-73
2023/12/12 14:25:18;;;;;;;14.00;6.40;;;7.30;99.90;;;;;;4914524;29;20289;-70
2023/12/12 14:27:44;;;;;;;12.02;5.22;;;7.30;99.90;;;;;;4913909;29;20329;-70
2023/12/12 14:30:14;;;;;;;8.32;5.20;;;7.30;99.90;;;;;;4929669;29;20576;-70
2023/12/12 14:32:41;;;;;;;7.30;5.13;;;7.30;99.90;;;;;;4936759;29;20241;-70
2023/12/12 14:35:08;;;;;;;7.07;4.80;;;7.20;99.90;;;;;;4937182;29;20244;-70
2023/12/12 14:37:36;;;;;;;5.72;5.22;;;7.20;99.90;;;;;;4936859;29;20216;-69
2023/12/12 14:40:05;;;;;;;10.45;6.70;;;7.20;99.90;;;;;;4936741;29;20293;-70
2023/12/12 14:42:31;;;;;;;7.00;5.40;;;7.20;99.90;;;;;;4937000;29;20218;-71
2023/12/12 14:44:58;;;;;;;6.40;5.80;;;7.20;99.90;;;;;;4936729;29;20264;-71
2023/12/12 14:47:25;;;;;;;10.07;5.53;;;7.20;99.90;;;;;;4937311;29;20305;-71
2023/12/12 14:49:52;;;;;;;8.70;7.07;;;7.20;99.90;;;;;;4937134;29;20241;-72
2023/12/12 14:52:19;;;;;;;9.75;5.80;;;7.20;99.90;;;;;;4945145;29;20213;-71
2023/12/12 14:54:47;;;;;;;8.30;5.85;;;7.20;99.90;;;;;;4937333;29;20405;-71
2023/12/12 14:57:15;;;;;;;7.20;5.10;;;7.20;99.90;;;;;;4936935;29;20237;-71
2023/12/12 14:59:42;;;;;;;13.15;6.95;;;7.10;99.90;;;;;;4937123;29;20724;-71
2023/12/12 15:02:09;;;;;;;8.65;4.75;;;7.10;99.90;;;;;;4936981;29;20273;-71
2023/12/12 15:04:36;;;;;;;8.35;5.63;;;7.10;99.90;;;;;;4936752;29;20217;-71
2023/12/12 15:07:03;;;;;;;6.05;4.95;;;7.10;99.90;;;;;;4936564;29;20324;-71
2023/12/12 15:09:30;;;;;;;8.45;6.20;;;7.00;99.90;;;;;;4936685;29;20741;-71
2023/12/12 15:11:58;;;;;;;7.05;5.45;;;7.00;99.90;;;;;;4943039;29;20241;-70
2023/12/12 15:14:25;;;;;;;7.00;4.88;;;7.00;99.90;;;;;;4955784;29;20260;-71
2023/12/12 15:16:52;;;;;;;6.68;4.80;;;7.00;99.90;;;;;;4955304;29;20241;-71
2023/12/12 15:19:19;;;;;;;6.25;4.85;;;7.00;99.90;;;;;;4956157;29;20209;-71
2023/12/12 15:21:51;;;;;;;9.98;6.97;;;6.90;99.90;;;;;;4948742;28;20268;-71
2023/12/12 15:24:18;;;;;;;9.05;6.15;;;6.90;99.90;;;;;;4938050;29;20217;-71
2023/12/12 15:26:45;;;;;;;8.45;5.95;;;6.90;99.90;;;;;;4937309;29;20237;-71
2023/12/12 15:29:14;;;;;;;15.05;7.40;;;6.90;99.90;;;;;;4945614;29;20632;-71
2023/12/12 15:31:41;;;;;;;11.05;6.40;;;6.90;99.90;;;;;;4955732;28;20232;-71
2023/12/12 15:34:08;;;;;;;14.70;8.23;;;6.90;99.90;;;;;;4939468;29;20612;-71
2023/12/12 15:36:34;;;;;;;12.15;7.60;;;6.90;99.90;;;;;;4936238;29;20229;-70
2023/12/12 15:39:02;;;;;;;14.75;6.65;;;6.90;99.90;;;;;;4936197;29;20241;-71
2023/12/12 15:41:30;;;;;;;10.02;6.15;;;6.80;99.90;;;;;;4936335;29;20243;-70
2023/12/12 15:43:57;;;;;;;8.75;5.68;;;6.80;99.90;;;;;;4935955;29;20327;-70
2023/12/12 15:46:25;;;;;;;13.57;6.70;;;6.80;99.90;;;;;;4935961;29;20265;-70
2023/12/12 15:48:52;;;;;;;9.55;5.93;;;6.80;99.90;;;;;;4936758;29;20309;-70
2023/12/12 15:51:19;;;;;;;12.70;6.78;;;7.10;99.90;;;;;;4936482;29;20320;-70
2023/12/12 15:53:46;;;;;;;10.50;5.65;;;6.80;99.90;;;;;;4936563;29;20244;-70
2023/12/12 15:56:13;;;;;;;7.05;5.90;;;6.80;99.90;;;;;;4933512;29;20722;-71
2023/12/12 15:58:40;;;;;;;7.65;5.70;;;6.80;99.90;;;;;;4929314;29;20206;-71
2023/12/12 16:01:09;;;;;;;8.43;5.85;;;6.80;99.90;;;;;;4936737;29;20224;-71
2023/12/12 16:03:38;;;;;;;9.82;7.40;;;6.80;99.90;;;;;;4930042;29;20240;-72
2023/12/12 16:06:06;;;;;;;11.65;7.30;;;6.80;99.90;;;;;;4933738;29;20210;-71
2023/12/12 16:08:33;;;;;;;8.88;5.95;;;6.80;99.90;;;;;;4934574;29;20224;-72
2023/12/12 16:11:00;;;;;;;11.73;7.55;;;6.70;99.90;;;;;;4932831;29;20235;-71
2023/12/12 16:13:27;;;;;;;10.23;6.45;;;6.70;99.90;;;;;;4933956;29;20249;-73
2023/12/12 16:15:54;;;;;;;13.07;8.05;;;6.70;99.90;;;;;;4932730;29;20220;-70
2023/12/12 16:18:21;;;;;;;13.55;6.95;;;6.70;99.90;;;;;;4933465;29;20252;-71
2023/12/12 16:20:49;;;;;;;8.63;5.70;;;6.70;99.90;;;;;;4934214;29;20233;-70
2023/12/12 16:23:16;;;;;;;12.82;7.45;;;6.70;99.90;;;;;;4933833;29;20649;-71
2023/12/12 16:25:43;;;;;;;7.00;5.05;;;6.60;99.90;;;;;;4934125;29;20236;-71
2023/12/12 16:28:09;;;;;;;10.80;7.22;;;6.60;99.90;;;;;;4934012;29;20240;-70
2023/12/12 16:30:36;;;;;;;11.55;7.20;;;6.60;99.90;;;;;;4934417;29;20240;-70
2023/12/12 16:33:03;;;;;;;15.75;7.35;;;6.60;99.90;;;;;;4933691;29;20237;-70
2023/12/12 16:35:30;;;;;;;11.60;6.88;;;6.50;99.90;;;;;;4942643;29;20251;-71
2023/12/12 16:37:58;;;;;;;7.85;7.05;;;6.50;99.90;;;;;;4945116;29;20208;-71
2023/12/12 16:40:25;;;;;;;11.13;7.25;;;6.40;99.90;;;;;;4939756;28;20265;-70
2023/12/12 16:42:52;;;;;;;7.82;5.93;;;6.40;99.90;;;;;;4931660;29;20291;-71
2023/12/12 16:45:19;;;;;;;11.05;6.40;;;6.40;99.90;;;;;;4929651;29;20301;-71
2023/12/12 16:47:46;;;;;;;10.05;5.72;;;6.40;99.90;;;;;;4926277;29;20229;-71
2023/12/12 16:50:13;;;;;;;12.80;6.68;;;6.30;99.90;;;;;;4927628;29;20312;-71
2023/12/12 16:52:40;;;;;;;7.18;5.53;;;6.30;99.90;;;;;;4933601;29;20209;-71
2023/12/12 16:55:09;;;;;;;6.97;6.28;;;6.30;99.90;;;;;;4930914;29;20262;-71
2023/12/12 16:57:37;;;;;;;7.38;6.43;;;6.30;99.90;;;;;;4929024;29;20216;-75
2023/12/12 17:00:07;;;;;;;8.75;6.82;;;6.30;99.90;;;;;;4938120;28;20216;-69
2023/12/12 17:02:34;;;;;;;12.70;7.10;;;6.30;99.90;;;;;;4933233;29;20220;-72
2023/12/12 17:05:01;;;;;;;12.38;5.78;;;6.20;99.90;;;;;;4930711;29;20209;-71
2023/12/12 17:07:28;;;;;;;10.90;6.50;;;6.20;99.90;;;;;;4930388;29;20303;-70
2023/12/12 17:09:55;;;;;;;9.32;5.90;;;6.10;99.90;;;;;;4931487;29;20619;-71
2023/12/12 17:12:24;;;;;;;16.63;6.45;;;6.10;99.90;;;;;;4932076;29;20352;-69
2023/12/12 17:14:50;;;;;;;14.15;6.80;;;6.10;99.90;;;;;;4921268;29;20223;-69
2023/12/12 17:17:18;;;;;;;10.50;5.50;;;6.10;99.90;;;;;;4928293;29;20210;-71
2023/12/12 17:19:44;;;;;;;9.68;7.03;;;6.10;99.90;;;;;;4931903;29;21397;-72
2023/12/12 17:22:13;;;;;;;8.23;6.40;;;6.10;99.90;;;;;;4928773;29;20363;-71
2023/12/12 17:24:40;;;;;;;11.88;6.97;;;6.10;99.90;;;;;;4929482;29;20255;-71
2023/12/12 17:27:07;;;;;;;10.45;6.53;;;6.10;99.90;;;;;;4929163;29;20276;-71
2023/12/12 17:29:35;;;;;;;7.63;6.35;;;6.20;99.90;;;;;;4930076;29;20264;-71
2023/12/12 17:32:02;;;;;;;14.40;5.80;;;6.20;99.90;;;;;;4931011;29;20298;-71
2023/12/12 17:34:29;;;;;;;9.27;6.40;;;6.20;99.90;;;;;;4929182;29;20223;-71
2023/12/12 17:36:56;;;;;;;8.82;5.97;;;6.20;99.90;;;;;;4928084;29;20284;-71
2023/12/12 17:39:22;;;;;;;8.70;5.28;;;6.20;99.90;;;;;;4928568;29;20290;-71
2023/12/12 17:41:49;;;;;;;7.32;5.85;;;6.10;99.90;;;;;;4931805;29;20323;-71
2023/12/12 17:44:16;;;;;;;8.30;5.25;;;6.20;99.90;;;;;;4930445;29;20296;-71
2023/12/12 17:46:44;;;;;;;13.63;7.43;;;6.10;99.90;;;;;;4926067;29;20302;-71
2023/12/12 17:49:11;;;;;;;7.70;5.40;;;6.10;99.90;;;;;;4929804;29;20319;-71
2023/12/12 17:51:38;;;;;;;10.90;5.78;;;6.20;99.90;;;;;;4929275;29;20275;-71